Time;durP1;ratioP1;P1;durP2;ratioP2;P2;SDS_P1;SDS_P2;PMS_P1;PMS_P2;Temp;Humidity;BMP_temperature;BMP_pressure;BME280_temperature;BME280_humidity;BME280_pressure;Samples;Min_cycle;Max_cycle;Signal;HPM_P1;HPM_P2
2023/10/29 00:01:57;;;;;;;1.45;0.75;;;;;;;20.36;18.12;101585.34;5080967;28;20039;-58
2023/10/29 00:04:23;;;;;;;1.65;0.85;;;;;;;20.39;16.94;101590.31;5091728;28;20028;-58
2023/10/29 00:06:49;;;;;;;1.08;0.77;;;;;;;20.19;15.52;101580.78;5091666;28;20078;-59
2023/10/29 00:09:17;;;;;;;4.93;1.92;;;;;;;20.29;16.32;101586.38;5072753;28;20025;-59
2023/10/29 00:11:43;;;;;;;1.15;0.70;;;;;;;20.35;15.26;101583.72;5073777;28;20130;-59
2023/10/29 00:14:09;;;;;;;2.05;1.10;;;;;;;20.16;14.86;101594.09;5091796;28;20073;-68
2023/10/29 00:16:36;;;;;;;1.02;0.80;;;;;;;20.16;14.89;101594.09;5092715;28;20031;-60
2023/10/29 00:19:02;;;;;;;0.52;0.52;;;;;;;20.19;14.60;101591.66;5092775;28;20032;-59
2023/10/29 00:21:30;;;;;;;0.40;0.40;;;;;;;20.22;14.19;101595.78;5092511;28;20020;-59
2023/10/29 00:23:56;;;;;;;1.25;0.60;;;;;;;20.13;14.32;101587.25;5091906;28;20371;-61
2023/10/29 00:26:23;;;;;;;0.90;0.52;;;;;;;20.17;14.05;101593.81;5092527;28;20486;-63
2023/10/29 00:28:49;;;;;;;0.93;0.60;;;;;;;20.16;14.42;101592.19;5088621;28;20549;-57
2023/10/29 00:31:15;;;;;;;0.77;0.60;;;;;;;19.99;14.85;101596.84;5092706;28;20089;-57
2023/10/29 00:33:41;;;;;;;1.25;0.77;;;;;;;20.03;14.67;101600.69;5092399;28;20034;-57
2023/10/29 00:36:09;;;;;;;1.98;0.60;;;;;;;19.98;14.65;101608.75;5091303;28;20036;-57
2023/10/29 00:38:35;;;;;;;1.45;0.52;;;;;;;19.93;14.90;101597.81;5090416;28;20028;-57
2023/10/29 00:41:01;;;;;;;0.80;0.60;;;;;;;19.84;15.30;101600.16;5082315;28;20531;-58
2023/10/29 00:43:28;;;;;;;1.30;0.75;;;;;;;19.68;15.73;101598.28;5071964;28;20028;-57
2023/10/29 00:45:54;;;;;;;1.77;0.90;;;;;;;19.63;16.40;101595.47;5083457;28;20035;-57
2023/10/29 00:48:22;;;;;;;1.23;0.55;;;;;;;19.61;16.53;101595.75;5092159;28;20027;-57
2023/10/29 00:50:49;;;;;;;2.22;0.90;;;;;;;19.69;16.71;101597.19;5092139;28;20036;-57
2023/10/29 00:53:15;;;;;;;0.90;0.70;;;;;;;19.59;17.37;101599.75;5092064;28;20024;-57
2023/10/29 00:55:42;;;;;;;1.50;0.80;;;;;;;19.43;17.34;101598.66;5092481;28;20438;-58
2023/10/29 00:58:10;;;;;;;1.40;0.80;;;;;;;19.33;17.58;101604.75;5092307;28;20024;-57
2023/10/29 01:00:36;;;;;;;1.95;0.77;;;;;;;19.24;17.65;101607.03;5092269;28;20116;-57
2023/10/29 01:03:03;;;;;;;0.88;0.70;;;;;;;19.35;18.28;101602.59;5091925;28;20477;-57
2023/10/29 01:05:30;;;;;;;1.48;0.70;;;;;;;19.13;18.59;101601.69;5090341;28;20057;-56
2023/10/29 01:07:56;;;;;;;2.85;0.98;;;;;;;19.12;18.76;101595.44;5082843;28;20032;-57
2023/10/29 01:10:22;;;;;;;1.67;0.80;;;;;;;19.11;18.33;101606.53;5089628;28;20024;-57
2023/10/29 01:12:49;;;;;;;3.70;0.80;;;;;;;18.87;18.43;101601.19;5091777;28;20024;-57
2023/10/29 01:15:15;;;;;;;2.95;2.40;;;;;;;18.94;20.12;101617.34;5086999;28;20114;-57
2023/10/29 01:17:42;;;;;;;7.55;4.43;;;;;;;18.67;23.85;101612.50;5079853;28;20033;-57
2023/10/29 01:20:09;;;;;;;7.63;5.88;;;;;;;18.59;27.44;101614.72;5076019;28;20024;-57
2023/10/29 01:22:35;;;;;;;9.98;6.65;;;;;;;18.50;30.71;101617.00;5080214;28;20032;-57
2023/10/29 01:25:05;;;;;;;8.27;6.95;;;;;;;18.44;32.05;101626.09;5076133;28;20024;-57
2023/10/29 01:27:31;;;;;;;8.50;7.20;;;;;;;18.06;34.78;101629.31;5087514;28;20028;-57
2023/10/29 01:29:58;;;;;;;9.10;8.13;;;;;;;18.13;36.15;101625.41;5091541;28;20096;-57
2023/10/29 01:32:24;;;;;;;8.85;7.82;;;;;;;17.75;38.79;101635.91;5089527;28;20474;-58
2023/10/29 01:34:50;;;;;;;8.88;7.97;;;;;;;17.82;39.69;101632.03;5071285;28;20024;-57
2023/10/29 01:37:17;;;;;;;11.65;8.43;;;;;;;17.40;41.08;101636.66;5078068;28;20028;-57
2023/10/29 01:39:43;;;;;;;9.57;8.15;;;;;;;17.36;42.11;101638.97;5089764;28;20028;-57
2023/10/29 01:42:09;;;;;;;9.27;8.38;;;;;;;17.60;42.06;101636.31;5070980;28;20025;-57
2023/10/29 01:44:36;;;;;;;10.30;9.02;;;;;;;17.52;42.71;101642.09;5071462;28;20425;-57
2023/10/29 01:47:03;;;;;;;9.55;8.55;;;;;;;17.44;42.78;101640.53;5084516;28;20035;-57
2023/10/29 01:49:29;;;;;;;9.90;8.57;;;;;;;17.12;44.04;101651.63;5091190;28;20032;-57
2023/10/29 01:51:56;;;;;;;12.05;10.40;;;;;;;17.22;44.03;101652.97;5091190;28;20020;-57
2023/10/29 01:54:22;;;;;;;13.25;9.40;;;;;;;17.10;43.62;101656.44;5091290;28;20378;-57
2023/10/29 01:56:49;;;;;;;11.60;10.13;;;;;;;17.28;43.44;101660.97;5086990;28;20103;-57
2023/10/29 01:59:15;;;;;;;12.30;10.43;;;;;;;16.85;43.87;101653.03;5074230;28;20670;-57
2023/10/29 02:01:42;;;;;;;13.77;10.90;;;;;;;16.76;43.22;101654.38;5079407;28;20019;-57
2023/10/29 02:04:11;;;;;;;15.02;13.32;;;;;;;16.60;42.70;101653.94;5091217;28;20489;-57
2023/10/29 02:06:40;;;;;;;14.00;12.57;;;;;;;16.66;41.69;101651.34;5079688;28;20028;-57
2023/10/29 02:09:12;;;;;;;13.65;12.30;;;;;;;16.62;41.61;101661.81;5089909;28;20024;-57
2023/10/29 02:11:39;;;;;;;13.32;10.30;;;;;;;16.37;41.40;101662.69;5079995;28;20057;-57
2023/10/29 02:14:06;;;;;;;13.40;11.50;;;;;;;16.48;41.13;101665.72;5074769;28;20418;-57
2023/10/29 02:16:32;;;;;;;14.73;10.85;;;;;;;16.44;41.56;101668.06;5079094;28;20064;-57
2023/10/29 02:18:59;;;;;;;11.85;10.25;;;;;;;16.16;42.25;101670.41;5086679;28;20130;-57
2023/10/29 02:21:25;;;;;;;13.00;10.85;;;;;;;16.18;42.16;101671.03;5094720;28;20042;-57
2023/10/29 02:23:55;;;;;;;12.15;10.95;;;;;;;16.09;42.44;101684.78;5076269;28;20032;-57
2023/10/29 02:26:25;;;;;;;15.48;12.02;;;;;;;16.25;42.24;101678.00;5074965;28;20028;-57
2023/10/29 02:28:51;;;;;;;13.57;11.05;;;;;;;16.10;42.49;101682.91;5074591;28;20031;-57
2023/10/29 02:31:21;;;;;;;17.70;11.95;;;;;;;15.86;43.08;101684.59;5074184;28;20024;-57
2023/10/29 02:33:47;;;;;;;14.82;12.30;;;;;;;15.82;43.17;101677.97;5074406;28;20382;-57
2023/10/29 02:36:14;;;;;;;16.33;12.35;;;;;;;15.73;43.49;101690.09;5074406;28;20028;-57
2023/10/29 02:38:42;;;;;;;14.27;11.52;;;;;;;15.92;43.24;101690.97;5074546;28;20032;-56
2023/10/29 02:41:09;;;;;;;16.73;11.48;;;;;;;15.58;43.45;101696.59;5083978;28;20024;-57
2023/10/29 02:43:38;;;;;;;12.45;10.40;;;;;;;15.57;43.72;101700.34;5074189;28;20020;-57
2023/10/29 02:46:04;;;;;;;13.38;10.40;;;;;;;15.55;42.84;101691.66;5082657;28;20437;-57
2023/10/29 02:48:30;;;;;;;12.35;10.60;;;;;;;15.60;43.02;101688.28;5092043;28;20036;-57
2023/10/29 02:50:57;;;;;;;12.50;10.63;;;;;;;15.27;43.01;101693.91;5097278;22;20048;-57
2023/10/29 02:53:23;;;;;;;12.07;10.63;;;;;;;15.26;42.22;101695.75;5073900;28;20031;-57
2023/10/29 02:55:49;;;;;;;13.68;10.68;;;;;;;15.11;41.68;101694.41;5074381;28;20093;-57
2023/10/29 02:58:15;;;;;;;13.25;10.40;;;;;;;15.13;41.98;101698.53;5073861;28;20074;-57
2023/10/29 03:00:42;;;;;;;13.07;10.68;;;;;;;15.14;41.81;101699.34;5073892;28;20028;-57
2023/10/29 03:03:08;;;;;;;11.75;10.00;;;;;;;15.16;42.19;101700.81;5076997;28;20355;-57
2023/10/29 03:05:34;;;;;;;12.73;10.52;;;;;;;15.09;41.58;101702.69;5092628;28;20020;-57
2023/10/29 03:08:01;;;;;;;12.13;10.38;;;;;;;15.16;41.81;101700.00;5075993;28;20521;-57
2023/10/29 03:10:31;;;;;;;11.45;10.27;;;;;;;15.02;41.70;101702.72;5072462;28;20150;-57
2023/10/29 03:12:57;;;;;;;11.13;9.82;;;;;;;14.99;41.57;101705.88;5073649;28;20021;-57
2023/10/29 03:15:24;;;;;;;13.18;10.98;;;;;;;15.27;40.52;101708.22;5073720;28;20027;-56
2023/10/29 03:17:50;;;;;;;11.32;10.13;;;;;;;14.98;41.52;101706.88;5073829;28;20044;-57
2023/10/29 03:20:17;;;;;;;12.80;10.70;;;;;;;14.79;42.62;101703.25;5073671;28;20078;-57
2023/10/29 03:22:43;;;;;;;13.27;10.70;;;;;;;14.68;42.95;101705.78;5073267;28;20025;-57
2023/10/29 03:25:09;;;;;;;14.52;11.15;;;;;;;14.43;42.47;101713.66;5073809;28;20028;-56
2023/10/29 03:27:36;;;;;;;13.35;11.23;;;;;;;14.53;42.17;101706.00;5073294;28;20029;-57
2023/10/29 03:30:02;;;;;;;13.75;11.50;;;;;;;14.50;42.44;101709.16;5073235;28;20386;-56
2023/10/29 03:32:29;;;;;;;14.25;11.23;;;;;;;14.67;42.29;101714.91;5073459;28;20551;-57
2023/10/29 03:34:55;;;;;;;13.48;11.27;;;;;;;14.41;42.93;101713.06;5072962;28;20071;-58
2023/10/29 03:37:21;;;;;;;13.45;11.50;;;;;;;14.51;42.88;101713.50;5073442;28;20113;-56
2023/10/29 03:39:47;;;;;;;14.75;11.55;;;;;;;14.38;43.48;101719.69;5077058;28;20024;-56
2023/10/29 03:42:13;;;;;;;14.23;11.90;;;;;;;14.25;44.08;101717.84;5093201;28;20035;-56
2023/10/29 03:44:40;;;;;;;13.18;10.80;;;;;;;14.07;44.21;101708.75;5093502;28;20516;-57
2023/10/29 03:47:06;;;;;;;16.15;11.55;;;;;;;14.05;44.76;101719.72;5093450;28;20020;-56
2023/10/29 03:49:32;;;;;;;15.13;12.07;;;;;;;13.99;45.56;101716.00;5072991;28;20135;-57
2023/10/29 03:51:58;;;;;;;12.88;11.32;;;;;;;13.73;45.94;101719.50;5088753;28;20464;-57
2023/10/29 03:54:25;;;;;;;13.90;11.82;;;;;;;13.69;46.22;101720.94;5091504;28;20169;-56
2023/10/29 03:56:51;;;;;;;13.68;11.27;;;;;;;13.54;47.05;101722.97;5074069;28;20386;-57
2023/10/29 03:59:17;;;;;;;14.00;11.60;;;;;;;13.52;46.84;101721.53;5092906;28;20021;-56
2023/10/29 04:01:43;;;;;;;12.70;11.20;;;;;;;13.53;46.94;101720.50;5083855;28;20028;-57
2023/10/29 04:04:10;;;;;;;14.00;11.40;;;;;;;13.46;47.29;101717.78;5086804;28;20031;-56
2023/10/29 04:06:36;;;;;;;15.88;12.35;;;;;;;13.31;47.77;101714.44;5100092;28;20382;-56
2023/10/29 04:09:02;;;;;;;14.25;11.50;;;;;;;13.30;47.67;101708.25;5092116;28;20105;-56
2023/10/29 04:11:28;;;;;;;13.75;11.30;;;;;;;13.25;47.83;101708.00;5072543;28;20017;-56
2023/10/29 04:13:55;;;;;;;14.70;10.00;;;;;;;13.29;47.72;101717.34;5080140;28;20494;-56
2023/10/29 04:16:21;;;;;;;11.20;9.88;;;;;;;13.15;47.81;101724.50;5072718;28;20090;-56
2023/10/29 04:18:47;;;;;;;14.13;10.70;;;;;;;13.34;47.67;101722.94;5104509;28;20036;-57
2023/10/29 04:21:14;;;;;;;14.57;10.88;;;;;;;13.35;47.56;101726.47;5098555;28;20034;-56
2023/10/29 04:23:40;;;;;;;11.93;10.52;;;;;;;13.35;47.39;101724.59;5092696;28;20032;-56
2023/10/29 04:26:06;;;;;;;13.57;10.02;;;;;;;13.16;48.24;101723.47;5092496;28;20024;-56
2023/10/29 04:28:33;;;;;;;11.90;9.70;;;;;;;13.09;48.72;101735.22;5092978;28;20028;-56
2023/10/29 04:31:00;;;;;;;10.95;9.85;;;;;;;12.92;49.07;101730.19;5092384;28;20119;-56
2023/10/29 04:33:26;;;;;;;11.20;9.27;;;;;;;12.83;49.41;101735.94;5092807;28;20020;-57
2023/10/29 04:35:52;;;;;;;14.25;10.68;;;;;;;12.74;49.94;101735.28;5092264;28;20028;-56
2023/10/29 04:38:19;;;;;;;11.23;9.73;;;;;;;12.88;49.38;101742.38;5092682;28;20024;-56
2023/10/29 04:40:45;;;;;;;10.50;8.98;;;;;;;13.00;48.86;101742.63;5092074;28;20024;-55
2023/10/29 04:43:12;;;;;;;10.38;8.60;;;;;;;12.71;49.70;101757.13;5092819;28;20063;-55
2023/10/29 04:45:38;;;;;;;11.35;8.95;;;;;;;12.54;50.63;101753.94;5092268;28;20057;-55
2023/10/29 04:48:05;;;;;;;10.93;9.50;;;;;;;12.36;51.18;101762.50;5074314;28;20422;-55
2023/10/29 04:50:31;;;;;;;12.60;10.00;;;;;;;12.14;51.92;101763.56;5071580;28;20059;-55
2023/10/29 04:52:58;;;;;;;11.55;9.68;;;;;;;11.67;53.27;101774.84;5076580;28;20035;-59
2023/10/29 04:55:24;;;;;;;10.43;9.07;;;;;;;11.84;53.04;101771.75;5071795;28;20024;-55
2023/10/29 04:57:50;;;;;;;9.88;8.43;;;;;;;11.84;53.08;101773.63;5071866;28;20044;-56
2023/10/29 05:00:16;;;;;;;13.05;9.27;;;;;;;11.52;54.10;101777.56;5079721;28;20036;-58
2023/10/29 05:02:43;;;;;;;11.40;8.75;;;;;;;11.59;54.03;101781.16;5091553;28;20431;-58
2023/10/29 05:05:10;;;;;;;10.88;8.95;;;;;;;11.57;54.50;101780.53;5080841;28;20510;-56
2023/10/29 05:07:37;;;;;;;11.40;9.15;;;;;;;11.70;53.95;101790.53;5071963;28;20029;-55
2023/10/29 05:10:07;;;;;;;11.45;8.88;;;;;;;11.57;54.18;101785.88;5071666;28;20107;-55
2023/10/29 05:12:33;;;;;;;11.60;8.95;;;;;;;11.43;54.84;101794.78;5079119;28;20039;-56
2023/10/29 05:14:59;;;;;;;10.02;8.73;;;;;;;11.32;55.25;101794.25;5091460;28;20019;-55
2023/10/29 05:17:26;;;;;;;12.02;8.77;;;;;;;11.32;55.38;101791.56;5091647;28;20150;-56
2023/10/29 05:19:54;;;;;;;8.60;7.70;;;;;;;11.33;55.29;101793.25;5091643;28;20024;-55
2023/10/29 05:22:20;;;;;;;8.88;7.95;;;;;;;11.42;55.39;101803.84;5090551;28;20028;-56
2023/10/29 05:24:47;;;;;;;8.55;7.70;;;;;;;11.28;55.48;101794.81;5091722;28;20020;-58
2023/10/29 05:27:13;;;;;;;11.25;8.88;;;;;;;11.31;55.44;101797.94;5091593;28;20470;-58
2023/10/29 05:29:39;;;;;;;10.38;8.57;;;;;;;11.16;55.63;101809.69;5091850;28;20031;-58
2023/10/29 05:32:06;;;;;;;8.95;8.05;;;;;;;11.23;55.63;101811.47;5088744;28;20024;-57
2023/10/29 05:34:33;;;;;;;10.35;8.23;;;;;;;11.18;56.03;101796.97;5094446;28;20047;-58
2023/10/29 05:36:59;;;;;;;8.82;7.63;;;;;;;11.07;56.17;101801.78;5093269;28;20055;-58
2023/10/29 05:39:25;;;;;;;10.65;8.10;;;;;;;11.01;56.14;101801.69;5090412;28;20028;-57
2023/10/29 05:41:52;;;;;;;10.32;8.10;;;;;;;10.96;56.33;101798.72;5078219;28;20028;-57
2023/10/29 05:44:18;;;;;;;9.95;8.60;;;;;;;10.93;56.23;101799.09;5075456;28;20035;-58
2023/10/29 05:46:45;;;;;;;9.20;8.02;;;;;;;10.95;56.45;101797.06;5075640;28;20032;-58
2023/10/29 05:49:11;;;;;;;9.38;8.32;;;;;;;10.81;57.10;101801.41;5091416;28;20031;-57
2023/10/29 05:51:37;;;;;;;10.40;8.15;;;;;;;10.76;57.00;101799.25;5109998;28;20020;-57
2023/10/29 05:54:04;;;;;;;9.90;8.25;;;;;;;10.70;57.18;101797.31;5095989;28;20028;-58
2023/10/29 05:56:31;;;;;;;8.52;7.63;;;;;;;10.68;57.06;101796.69;5095771;28;20105;-58
2023/10/29 05:58:57;;;;;;;10.25;8.63;;;;;;;10.63;57.31;101793.72;5095741;28;20103;-58
2023/10/29 06:01:23;;;;;;;10.23;8.55;;;;;;;10.64;56.67;101791.88;5095340;28;20440;-56
2023/10/29 06:03:49;;;;;;;10.32;8.73;;;;;;;10.59;57.04;101784.38;5096043;28;20032;-55
2023/10/29 06:06:16;;;;;;;10.57;8.40;;;;;;;10.51;57.15;101784.47;5095426;28;20497;-57
2023/10/29 06:08:42;;;;;;;10.68;9.13;;;;;;;10.41;56.92;101795.44;5095635;28;20051;-55
2023/10/29 06:11:08;;;;;;;11.25;8.98;;;;;;;10.54;56.56;101794.81;5095423;28;20752;-54
2023/10/29 06:13:34;;;;;;;32.20;19.98;;;;;;;10.37;56.81;101794.13;5106457;28;20039;-58
2023/10/29 06:16:07;;;;;;;32.67;21.02;;;;;;;10.27;56.90;101797.06;5092579;28;20030;-57
2023/10/29 06:18:33;;;;;;;27.27;18.63;;;;;;;10.21;57.11;101799.59;5094085;28;20024;-58
2023/10/29 06:20:59;;;;;;;34.90;19.52;;;;;;;10.22;57.37;101793.25;5095012;28;20490;-57
2023/10/29 06:23:26;;;;;;;26.73;16.67;;;;;;;10.12;57.58;101804.19;5094791;28;20036;-57
2023/10/29 06:25:53;;;;;;;18.55;11.85;;;;;;;10.01;57.41;101805.44;5091978;28;20033;-58
2023/10/29 06:28:19;;;;;;;14.23;9.88;;;;;;;9.98;57.22;101799.59;5074612;28;20027;-55
2023/10/29 06:30:45;;;;;;;13.73;10.40;;;;;;;9.95;56.92;101798.13;5074694;28;20024;-57
2023/10/29 06:33:12;;;;;;;13.82;8.93;;;;;;;9.96;55.78;101796.28;5085478;28;20070;-57
2023/10/29 06:35:40;;;;;;;10.45;8.30;;;;;;;10.08;55.12;101799.38;5094769;28;20030;-57
2023/10/29 06:38:07;;;;;;;10.15;7.80;;;;;;;9.74;55.98;101809.47;5094799;28;20024;-57
2023/10/29 06:40:33;;;;;;;10.52;8.40;;;;;;;9.61;55.80;101803.88;5094479;28;20060;-57
2023/10/29 06:42:59;;;;;;;8.43;6.35;;;;;;;9.68;55.25;101804.81;5093746;28;20458;-55
2023/10/29 06:45:25;;;;;;;9.90;6.47;;;;;;;9.62;54.92;101804.72;5101000;22;20048;-57
2023/10/29 06:47:52;;;;;;;6.80;5.65;;;;;;;9.61;55.16;101811.91;5093408;28;20114;-57
2023/10/29 06:50:18;;;;;;;10.10;6.22;;;;;;;9.62;54.82;101800.19;5094274;28;20394;-57
2023/10/29 06:52:44;;;;;;;6.07;4.95;;;;;;;9.70;53.81;101804.66;5094683;28;20497;-57
2023/10/29 06:55:12;;;;;;;7.68;4.68;;;;;;;9.70;54.12;101802.81;5094747;28;20405;-57
2023/10/29 06:57:38;;;;;;;6.28;4.57;;;;;;;9.63;54.42;101804.53;5094810;28;20382;-57
2023/10/29 07:00:07;;;;;;;4.85;4.07;;;;;;;9.66;53.71;101797.97;5094745;28;20028;-56
2023/10/29 07:02:33;;;;;;;6.15;4.78;;;;;;;9.63;53.64;101801.84;5081768;28;20047;-57
2023/10/29 07:04:59;;;;;;;5.88;4.20;;;;;;;9.66;53.16;101798.84;5073675;28;20079;-57
2023/10/29 07:07:28;;;;;;;4.88;3.97;;;;;;;9.65;52.90;101802.50;5074184;28;20025;-56
2023/10/29 07:09:55;;;;;;;5.25;3.22;;;;;;;9.99;47.11;101801.25;5093959;28;20023;-56
2023/10/29 07:12:21;;;;;;;4.72;3.60;;;;;;;10.14;45.99;101791.47;5093791;28;20048;-56
2023/10/29 07:14:48;;;;;;;4.43;3.20;;;;;;;10.14;46.58;101793.31;5094088;28;20020;-56
2023/10/29 07:17:15;;;;;;;3.70;3.22;;;;;;;10.29;43.89;101794.22;5093866;28;20420;-56
2023/10/29 07:19:41;;;;;;;4.00;3.03;;;;;;;10.42;43.68;101789.06;5088653;28;20017;-56
2023/10/29 07:22:07;;;;;;;4.20;3.30;;;;;;;10.47;43.86;101786.69;5077881;28;20024;-55
2023/10/29 07:24:35;;;;;;;4.55;3.55;;;;;;;10.41;44.18;101790.09;5093758;28;20028;-55
2023/10/29 07:27:02;;;;;;;4.57;3.40;;;;;;;10.45;43.48;101787.88;5093837;28;20496;-56
2023/10/29 07:29:28;;;;;;;4.32;3.03;;;;;;;10.75;40.86;101784.22;5093286;28;20110;-56
2023/10/29 07:31:54;;;;;;;3.30;2.72;;;;;;;10.74;40.41;101787.91;5093377;28;20473;-55
2023/10/29 07:34:21;;;;;;;3.78;3.13;;;;;;;10.86;40.26;101788.28;5093675;28;20039;-56
2023/10/29 07:36:47;;;;;;;4.20;2.92;;;;;;;11.19;39.52;101786.03;5093871;28;20035;-56
2023/10/29 07:39:13;;;;;;;4.97;2.85;;;;;;;11.34;37.65;101786.03;5093477;28;20027;-55
2023/10/29 07:41:39;;;;;;;3.38;2.72;;;;;;;11.46;37.01;101783.69;5092952;28;20032;-55
2023/10/29 07:44:05;;;;;;;3.20;2.70;;;;;;;11.57;37.00;101785.88;5093109;28;20028;-56
2023/10/29 07:46:32;;;;;;;4.63;2.85;;;;;;;11.68;35.86;101792.59;5092837;28;20020;-55
2023/10/29 07:48:58;;;;;;;4.18;2.78;;;;;;;11.76;35.88;101795.97;5092961;28;20035;-55
2023/10/29 07:51:24;;;;;;;2.88;2.58;;;;;;;11.95;35.84;101809.84;5093116;28;20462;-54
2023/10/29 07:53:51;;;;;;;6.70;3.00;;;;;;;11.88;35.39;101805.25;5093093;28;20060;-54
2023/10/29 07:56:19;;;;;;;3.67;2.85;;;;;;;11.89;35.83;101806.91;5091906;28;20401;-55
2023/10/29 07:58:46;;;;;;;3.42;2.67;;;;;;;11.91;36.36;101808.56;5092987;28;20028;-56
2023/10/29 08:01:17;;;;;;;3.40;2.60;;;;;;;11.88;36.38;101815.97;5092797;28;20032;-54
2023/10/29 08:03:45;;;;;;;4.40;2.80;;;;;;;11.87;37.06;101811.59;5092726;28;20028;-54
2023/10/29 08:06:12;;;;;;;3.40;2.65;;;;;;;11.80;37.38;101817.91;5093010;28;20020;-54
2023/10/29 08:08:39;;;;;;;3.17;2.53;;;;;;;11.78;37.98;101817.28;5092882;28;20390;-56
2023/10/29 08:11:06;;;;;;;3.55;2.53;;;;;;;11.73;39.06;101831.25;5092325;28;20111;-56
2023/10/29 08:13:32;;;;;;;2.80;2.00;;;;;;;11.62;39.81;101826.38;5091312;28;20112;-55
2023/10/29 08:15:59;;;;;;;4.47;2.85;;;;;;;11.57;40.11;101828.78;5091000;28;20107;-56
2023/10/29 08:18:25;;;;;;;2.97;2.17;;;;;;;11.51;41.58;101832.22;5092522;28;20055;-55
2023/10/29 08:20:52;;;;;;;3.58;2.67;;;;;;;11.42;42.71;101841.38;5092533;28;20470;-55
2023/10/29 08:23:18;;;;;;;4.00;2.80;;;;;;;11.25;42.85;101846.94;5092767;28;20032;-54
2023/10/29 08:25:44;;;;;;;3.90;2.58;;;;;;;11.14;42.78;101835.84;5078724;28;20028;-55
2023/10/29 08:28:10;;;;;;;3.28;2.70;;;;;;;10.98;43.36;101834.19;5074284;28;20078;-55
2023/10/29 08:30:37;;;;;;;5.00;2.50;;;;;;;10.80;43.99;101842.59;5092721;28;20040;-55
2023/10/29 08:33:03;;;;;;;4.18;3.30;;;;;;;10.69;45.76;101841.19;5092416;28;20031;-55
2023/10/29 08:35:30;;;;;;;5.00;3.30;;;;;;;10.46;46.53;101851.09;5092414;28;20020;-55
2023/10/29 08:37:56;;;;;;;4.72;3.42;;;;;;;10.35;47.75;101840.81;5092659;28;20030;-55
2023/10/29 08:40:23;;;;;;;4.47;3.33;;;;;;;10.13;48.50;101854.00;5092402;28;20127;-55
2023/10/29 08:42:49;;;;;;;5.63;3.88;;;;;;;10.00;48.92;101846.56;5092659;28;20089;-56
2023/10/29 08:45:15;;;;;;;4.15;3.15;;;;;;;9.82;49.73;101845.19;5091299;28;20082;-52
2023/10/29 08:47:41;;;;;;;5.45;3.88;;;;;;;9.83;49.53;101846.84;5092257;28;20481;-55
2023/10/29 08:50:11;;;;;;;4.45;3.05;;;;;;;9.80;48.54;101848.03;5092246;28;20020;-56
2023/10/29 08:52:37;;;;;;;5.75;3.50;;;;;;;9.53;50.13;101850.16;5092729;28;20078;-52
2023/10/29 08:55:04;;;;;;;3.25;2.90;;;;;;;9.66;49.15;101852.31;5092264;28;20028;-53
2023/10/29 08:57:30;;;;;;;4.07;3.38;;;;;;;9.69;48.95;101849.25;5092332;28;20027;-54
2023/10/29 08:59:57;;;;;;;3.92;3.30;;;;;;;9.64;48.84;101856.97;5092205;28;20077;-54
2023/10/29 09:02:23;;;;;;;3.42;3.08;;;;;;;9.57;48.98;101849.84;5091986;28;20024;-54
2023/10/29 09:04:52;;;;;;;4.35;3.35;;;;;;;9.55;49.43;101858.03;5091885;28;20111;-55
2023/10/29 09:07:20;;;;;;;4.18;2.90;;;;;;;9.49;49.97;101858.72;5082352;28;20032;-54
2023/10/29 09:09:47;;;;;;;4.00;3.53;;;;;;;9.47;50.83;101861.56;5091904;28;20031;-53
2023/10/29 09:12:13;;;;;;;4.25;3.65;;;;;;;9.42;50.79;101861.25;5092482;28;20512;-56
2023/10/29 09:14:40;;;;;;;5.13;4.22;;;;;;;9.34;51.80;101860.47;5092174;28;20040;-54
2023/10/29 09:17:06;;;;;;;4.68;4.13;;;;;;;9.26;52.52;101869.31;5089836;28;20028;-56
2023/10/29 09:19:33;;;;;;;4.88;4.20;;;;;;;9.19;52.71;101866.50;5092100;28;20023;-54
2023/10/29 09:22:00;;;;;;;5.40;4.25;;;;;;;9.16;52.94;101858.00;5091631;28;20110;-54
2023/10/29 09:24:26;;;;;;;4.38;3.97;;;;;;;9.07;53.28;101859.88;5091789;28;20486;-54
2023/10/29 09:26:53;;;;;;;6.03;4.40;;;;;;;8.94;53.70;101859.59;5074113;28;20397;-54
2023/10/29 09:29:20;;;;;;;5.22;3.92;;;;;;;8.86;54.00;101857.75;5092118;28;20024;-55
2023/10/29 09:31:46;;;;;;;5.90;4.43;;;;;;;8.88;54.07;101857.56;5089365;28;20047;-54
2023/10/29 09:34:12;;;;;;;9.48;4.38;;;;;;;8.85;54.51;101860.59;5070989;28;20046;-55
2023/10/29 09:36:39;;;;;;;4.22;3.67;;;;;;;8.79;54.83;101855.94;5071558;28;20109;-55
2023/10/29 09:39:05;;;;;;;5.72;4.00;;;;;;;8.61;54.56;101853.47;5082331;28;20422;-55
2023/10/29 09:41:33;;;;;;;4.47;3.70;;;;;;;8.64;54.49;101853.94;5091792;28;20401;-55
2023/10/29 09:44:00;;;;;;;4.25;3.85;;;;;;;8.68;54.29;101852.59;5091828;28;20020;-55
2023/10/29 09:46:30;;;;;;;4.75;3.85;;;;;;;8.58;54.78;101846.59;5089573;28;20524;-55
2023/10/29 09:48:57;;;;;;;5.22;3.70;;;;;;;8.93;54.58;101844.53;5090871;28;20474;-54
2023/10/29 09:51:24;;;;;;;6.70;4.15;;;;;;;8.78;55.06;101847.09;5091444;28;20024;-55
2023/10/29 09:53:52;;;;;;;5.65;4.32;;;;;;;8.59;55.30;101845.59;5091730;28;20040;-55
2023/10/29 09:56:18;;;;;;;4.85;3.70;;;;;;;8.45;55.85;101854.28;5090575;28;20028;-55
2023/10/29 09:58:44;;;;;;;6.05;3.67;;;;;;;8.36;55.98;101853.44;5091627;28;20486;-55
2023/10/29 10:01:10;;;;;;;5.65;3.88;;;;;;;8.28;56.07;101849.94;5091414;28;20110;-55
2023/10/29 10:03:37;;;;;;;4.50;3.78;;;;;;;8.28;56.37;101852.59;5091484;28;20032;-55
2023/10/29 10:06:03;;;;;;;4.85;3.75;;;;;;;8.26;56.70;101854.59;5091471;28;20060;-56
2023/10/29 10:08:32;;;;;;;4.05;3.65;;;;;;;8.18;56.83;101852.75;5091752;28;20024;-54
2023/10/29 10:10:59;;;;;;;4.97;3.75;;;;;;;8.13;57.09;101845.25;5091259;28;20051;-55
2023/10/29 10:13:41;;;;;;;5.13;3.90;;;;;;;8.08;57.21;101847.56;5091254;28;20556;-53
2023/10/29 10:16:14;;;;;;;4.72;3.70;;;;;;;8.15;57.18;101848.56;5091444;28;20394;-55
2023/10/29 10:18:58;;;;;;;4.65;3.58;;;;;;;7.98;57.45;101844.22;5090969;28;20023;-54
2023/10/29 10:21:39;;;;;;;3.95;3.28;;;;;;;8.10;56.64;101844.72;5094321;28;20043;-54
2023/10/29 10:24:06;;;;;;;3.60;3.15;;;;;;;8.11;56.23;101852.59;5095367;28;20149;-54
2023/10/29 10:26:36;;;;;;;4.63;3.30;;;;;;;8.11;55.85;101843.75;5095166;28;20024;-54
2023/10/29 10:29:08;;;;;;;3.08;2.78;;;;;;;8.12;55.39;101840.91;5095267;28;20024;-55
2023/10/29 10:31:38;;;;;;;4.40;3.08;;;;;;;8.06;55.37;101833.56;5094897;28;20481;-53
2023/10/29 10:34:16;;;;;;;4.15;3.15;;;;;;;7.90;56.03;101838.88;5095180;28;20115;-55
2023/10/29 10:36:49;;;;;;;3.67;2.72;;;;;;;7.84;55.71;101831.53;5094852;28;20032;-54
2023/10/29 10:39:20;;;;;;;3.38;2.70;;;;;;;7.87;55.76;101836.53;5095083;28;20108;-55
2023/10/29 10:41:47;;;;;;;4.53;3.13;;;;;;;7.76;55.55;101831.50;5093782;28;20028;-55
2023/10/29 10:44:15;;;;;;;3.17;2.60;;;;;;;7.92;54.36;101827.03;5094602;28;20028;-54
2023/10/29 10:46:52;;;;;;;3.45;2.90;;;;;;;7.92;53.40;101828.88;5094951;28;20081;-54
2023/10/29 10:49:21;;;;;;;3.20;2.65;;;;;;;7.79;54.04;101832.03;5094536;28;20036;-54
2023/10/29 10:51:52;;;;;;;4.53;2.42;;;;;;;7.95;52.35;101825.91;5094280;28;20021;-54
2023/10/29 10:54:19;;;;;;;3.50;2.90;;;;;;;7.87;52.56;101828.53;5094782;28;20035;-53
2023/10/29 10:56:46;;;;;;;3.10;2.63;;;;;;;7.83;52.95;101816.56;5094408;28;20024;-54
2023/10/29 10:59:13;;;;;;;3.25;2.47;;;;;;;7.76;54.59;101815.53;5094153;28;20447;-55
2023/10/29 11:01:40;;;;;;;4.90;2.83;;;;;;;7.82;54.13;101805.03;5094137;28;20489;-54
2023/10/29 11:04:08;;;;;;;2.85;2.33;;;;;;;7.75;53.61;101808.53;5094046;28;20032;-55
2023/10/29 11:06:39;;;;;;;2.55;2.30;;;;;;;7.78;53.96;101810.88;5093658;28;20115;-54
2023/10/29 11:09:13;;;;;;;3.22;2.58;;;;;;;7.71;54.06;101824.00;5093973;28;20078;-54
2023/10/29 11:11:59;;;;;;;2.40;2.20;;;;;;;7.66;54.51;101816.53;5093959;28;20024;-53
2023/10/29 11:14:26;;;;;;;3.08;2.40;;;;;;;7.61;54.24;101807.34;5094501;28;20521;-55
2023/10/29 11:16:54;;;;;;;2.25;2.00;;;;;;;7.63;54.63;101811.50;5094133;28;20028;-54
2023/10/29 11:19:39;;;;;;;3.58;2.90;;;;;;;7.62;52.53;101796.53;5093940;28;20130;-54
2023/10/29 11:22:21;;;;;;;4.65;2.78;;;;;;;7.68;51.89;101792.38;5093646;28;20024;-52